Time;durP1;ratioP1;P1;durP2;ratioP2;P2;SDS_P1;SDS_P2;PMS_P1;PMS_P2;Temp;Humidity;BMP_temperature;BMP_pressure;BME280_temperature;BME280_humidity;BME280_pressure;Samples;Min_cycle;Max_cycle;Signal;HPM_P1;HPM_P2
2020/12/28 00:02:08;;;;;;;2.17;1.40;;;;;;;16.08;57.75;97624.06;4826547;29;20490;-75
2020/12/28 00:04:34;;;;;;;1.77;1.40;;;;;;;16.07;57.50;97627.59;4819064;29;20026;-76
2020/12/28 00:07:00;;;;;;;2.13;1.40;;;;;;;16.06;57.79;97619.91;4826295;29;20042;-76
2020/12/28 00:09:25;;;;;;;1.63;1.20;;;;;;;16.06;57.47;97618.13;4847264;29;20026;-75
2020/12/28 00:11:55;;;;;;;1.40;1.23;;;;;;;16.04;57.63;97625.16;4827343;29;20351;-75
2020/12/28 00:14:21;;;;;;;1.55;1.20;;;;;;;16.04;57.65;97619.97;4826233;29;20043;-76
2020/12/28 00:16:47;;;;;;;1.42;1.13;;;;;;;16.04;57.84;97626.00;4812067;29;20046;-76
2020/12/28 00:19:12;;;;;;;1.77;1.30;;;;;;;16.03;57.59;97619.16;4837465;29;20066;-76
2020/12/28 00:21:38;;;;;;;1.48;1.10;;;;;;;16.04;57.70;97626.00;4837261;29;20065;-76
2020/12/28 00:24:03;;;;;;;1.77;1.20;;;;;;;16.04;57.54;97623.41;4826184;29;20030;-76
2020/12/28 00:26:36;;;;;;;1.77;1.23;;;;;;;16.06;57.61;97619.91;4833369;29;20492;-75
2020/12/28 00:29:02;;;;;;;1.40;1.15;;;;;;;16.05;57.83;97613.88;4839888;29;20077;-75
2020/12/28 00:31:27;;;;;;;1.85;1.10;;;;;;;16.03;57.35;97616.56;4835246;29;20067;-76
2020/12/28 00:33:52;;;;;;;2.15;1.38;;;;;;;16.03;57.53;97610.53;4839720;29;20087;-76
2020/12/28 00:36:18;;;;;;;1.65;1.30;;;;;;;16.04;57.51;97614.78;4831058;29;20041;-76
2020/12/28 00:38:43;;;;;;;1.48;1.17;;;;;;;16.03;57.54;97605.34;4831678;29;20059;-76
2020/12/28 00:41:11;;;;;;;1.92;1.40;;;;;;;16.03;57.20;97613.94;4836291;29;20359;-76
2020/12/28 00:43:36;;;;;;;1.40;1.13;;;;;;;16.02;57.30;97611.44;4836713;29;20035;-76
2020/12/28 00:46:06;;;;;;;1.92;1.33;;;;;;;15.99;57.22;97607.25;4825777;29;20512;-76
2020/12/28 00:48:31;;;;;;;2.58;1.50;;;;;;;16.01;57.69;97608.00;4841922;29;20438;-76
2020/12/28 00:50:56;;;;;;;2.28;1.15;;;;;;;16.00;57.30;97608.94;4829917;29;20072;-75
2020/12/28 00:53:22;;;;;;;1.58;1.40;;;;;;;15.98;57.51;97608.19;4822653;29;20540;-75
2020/12/28 00:55:47;;;;;;;1.42;1.10;;;;;;;15.99;57.45;97612.44;4809767;29;20049;-75
2020/12/28 00:58:12;;;;;;;1.70;1.30;;;;;;;16.00;56.75;97615.88;4810440;29;20062;-76
2020/12/28 01:00:38;;;;;;;1.40;1.20;;;;;;;16.00;57.37;97615.88;4814902;29;20036;-76
2020/12/28 01:03:03;;;;;;;1.50;1.23;;;;;;;16.00;57.36;97621.91;4814862;29;20374;-76
2020/12/28 01:05:28;;;;;;;1.92;1.55;;;;;;;16.00;56.85;97615.88;4834350;29;20495;-76
2020/12/28 01:07:54;;;;;;;2.08;1.33;;;;;;;16.00;56.84;97615.88;4821732;29;20461;-76
2020/12/28 01:10:19;;;;;;;1.65;1.40;;;;;;;16.00;57.09;97610.69;4822495;29;20050;-75
2020/12/28 01:12:44;;;;;;;1.90;1.20;;;;;;;15.99;57.16;97612.44;4826910;29;20038;-76
2020/12/28 01:15:09;;;;;;;1.95;1.27;;;;;;;15.99;57.22;97620.22;4816985;29;20069;-75
2020/12/28 01:17:35;;;;;;;1.50;1.20;;;;;;;16.00;57.00;97615.88;4824396;29;20121;-75
2020/12/28 01:20:00;;;;;;;2.00;1.60;;;;;;;16.00;57.06;97621.06;4829722;29;20049;-75
2020/12/28 01:22:25;;;;;;;2.25;1.55;;;;;;;15.99;57.01;97616.81;4820179;29;20053;-75
2020/12/28 01:24:51;;;;;;;1.70;1.42;;;;;;;15.98;56.97;97628.94;4825956;29;20083;-76
2020/12/28 01:27:16;;;;;;;2.22;1.58;;;;;;;15.99;56.87;97625.41;4792807;29;20085;-75
2020/12/28 01:29:41;;;;;;;2.33;1.60;;;;;;;16.00;56.84;97619.31;4823714;29;20451;-76
2020/12/28 01:32:07;;;;;;;1.85;1.33;;;;;;;15.99;57.17;97624.59;4817023;29;20390;-76
2020/12/28 01:34:32;;;;;;;1.92;1.50;;;;;;;15.99;56.17;97627.19;4825645;29;20038;-76
2020/12/28 01:36:57;;;;;;;2.38;1.67;;;;;;;15.99;56.72;97627.19;4820023;29;20443;-76
2020/12/28 01:39:22;;;;;;;2.30;1.63;;;;;;;15.98;56.98;97634.13;4807591;29;20125;-76
2020/12/28 01:41:48;;;;;;;1.75;1.50;;;;;;;15.97;56.69;97632.44;4818805;29;20030;-76
2020/12/28 01:44:13;;;;;;;2.42;1.67;;;;;;;15.97;56.98;97631.59;4823844;29;20038;-76
2020/12/28 01:46:39;;;;;;;2.25;1.67;;;;;;;15.97;56.88;97631.59;4825298;29;20045;-76
2020/12/28 01:49:04;;;;;;;2.15;1.50;;;;;;;15.97;57.10;97632.44;4787107;29;20117;-76
2020/12/28 01:51:29;;;;;;;2.33;1.70;;;;;;;15.96;56.69;97635.97;4818088;29;20054;-76
2020/12/28 01:53:55;;;;;;;2.08;1.60;;;;;;;15.97;56.80;97644.56;4829539;29;20046;-75
2020/12/28 01:56:21;;;;;;;1.55;1.45;;;;;;;15.97;56.74;97642.81;4822761;29;20033;-75
2020/12/28 01:58:47;;;;;;;1.75;1.60;;;;;;;15.97;56.70;97652.34;4813183;29;20034;-75
2020/12/28 02:01:14;;;;;;;1.88;1.55;;;;;;;15.96;56.55;97642.88;4829807;29;20034;-75
2020/12/28 02:03:40;;;;;;;2.13;1.70;;;;;;;15.97;56.68;97640.22;4837251;29;20037;-75
2020/12/28 02:06:05;;;;;;;2.38;1.50;;;;;;;15.97;56.67;97647.16;4820483;29;20402;-75
2020/12/28 02:08:31;;;;;;;1.98;1.50;;;;;;;15.96;56.47;97641.16;4826553;29;20049;-75
2020/12/28 02:10:56;;;;;;;2.10;1.80;;;;;;;15.96;56.84;97645.47;4824999;29;20125;-75
2020/12/28 02:13:21;;;;;;;2.00;1.52;;;;;;;15.95;56.73;97649.84;4827954;29;20456;-76
2020/12/28 02:15:47;;;;;;;1.90;1.70;;;;;;;15.95;56.46;97639.47;4835252;29;20489;-74
2020/12/28 02:18:13;;;;;;;2.10;1.60;;;;;;;15.94;56.62;97640.41;4827966;29;20030;-76
2020/12/28 02:20:39;;;;;;;1.92;1.65;;;;;;;15.95;56.60;97638.63;4831983;29;20034;-76
2020/12/28 02:23:04;;;;;;;1.85;1.67;;;;;;;15.93;56.62;97643.06;4833394;29;20052;-76
2020/12/28 02:25:30;;;;;;;2.40;1.63;;;;;;;15.93;56.59;97641.28;4824863;29;20075;-76
2020/12/28 02:27:55;;;;;;;2.20;1.60;;;;;;;15.93;56.74;97640.47;4835699;29;20042;-76
2020/12/28 02:30:20;;;;;;;1.92;1.60;;;;;;;15.94;56.64;97647.31;4824092;29;20049;-76
2020/12/28 02:32:46;;;;;;;2.08;1.88;;;;;;;15.93;56.69;97650.84;4839580;29;20626;-76
2020/12/28 02:35:11;;;;;;;2.28;1.63;;;;;;;15.92;56.49;97644.81;4838394;29;20034;-76
2020/12/28 02:37:36;;;;;;;1.95;1.60;;;;;;;15.92;56.49;97650.00;4816784;29;20037;-76
2020/12/28 02:40:02;;;;;;;1.95;1.40;;;;;;;15.91;56.48;97652.69;4836638;29;20035;-76
2020/12/28 02:42:28;;;;;;;2.13;1.48;;;;;;;15.90;56.47;97651.84;4837353;29;20026;-76
2020/12/28 02:44:53;;;;;;;2.53;1.80;;;;;;;15.90;56.09;97645.81;4833466;29;20029;-76
2020/12/28 02:47:18;;;;;;;2.55;1.60;;;;;;;15.90;56.54;97643.25;4841897;29;20086;-75
2020/12/28 02:49:44;;;;;;;2.10;1.60;;;;;;;15.90;56.51;97646.66;4834810;29;20038;-75
2020/12/28 02:52:09;;;;;;;1.70;1.40;;;;;;;15.89;56.12;97644.97;4824502;29;20057;-76
2020/12/28 02:54:35;;;;;;;1.75;1.55;;;;;;;15.89;56.25;97647.56;4837908;29;20071;-76
2020/12/28 02:57:00;;;;;;;2.40;1.70;;;;;;;15.88;56.29;97647.66;4836353;29;20037;-76
2020/12/28 02:59:25;;;;;;;1.65;1.40;;;;;;;15.88;56.34;97643.31;4827928;29;20038;-76
2020/12/28 03:01:51;;;;;;;3.05;1.80;;;;;;;15.87;56.53;97645.97;4820354;29;20408;-75
2020/12/28 03:04:16;;;;;;;1.90;1.52;;;;;;;15.86;56.48;97645.16;4795630;29;20106;-75
2020/12/28 03:06:41;;;;;;;2.05;1.65;;;;;;;15.87;56.60;97646.81;4811483;29;20094;-75
2020/12/28 03:09:07;;;;;;;1.63;1.50;;;;;;;15.86;56.40;97642.56;4822493;29;20036;-76
2020/12/28 03:11:32;;;;;;;2.90;1.65;;;;;;;15.86;56.37;97639.13;4840586;29;20079;-76
2020/12/28 03:13:58;;;;;;;1.88;1.40;;;;;;;15.84;56.39;97642.63;4839579;29;20100;-76
2020/12/28 03:16:23;;;;;;;1.90;1.48;;;;;;;15.86;56.36;97654.69;4826230;29;20038;-76
2020/12/28 03:18:48;;;;;;;2.42;1.60;;;;;;;15.86;56.29;97649.50;4825921;29;20401;-76
2020/12/28 03:21:14;;;;;;;1.85;1.50;;;;;;;15.84;55.91;97655.59;4839892;29;20026;-76
2020/12/28 03:23:39;;;;;;;1.83;1.50;;;;;;;15.84;56.00;97657.34;4805156;29;20042;-76
2020/12/28 03:26:04;;;;;;;1.85;1.60;;;;;;;15.84;56.66;97657.34;4806201;29;20042;-75
2020/12/28 03:28:30;;;;;;;2.10;1.48;;;;;;;15.84;56.00;97655.59;4837690;29;20034;-76
2020/12/28 03:30:55;;;;;;;1.90;1.65;;;;;;;15.86;55.83;97654.69;4823164;29;20035;-76
2020/12/28 03:33:20;;;;;;;1.65;1.30;;;;;;;15.84;55.89;97660.78;4810639;29;20034;-76
2020/12/28 03:35:46;;;;;;;1.88;1.60;;;;;;;15.85;55.65;97664.19;4811233;29;20038;-75
2020/12/28 03:38:11;;;;;;;1.92;1.70;;;;;;;15.83;56.20;97677.25;4811279;29;20041;-75
2020/12/28 03:40:36;;;;;;;2.33;1.55;;;;;;;15.83;56.17;97677.25;4827790;29;20087;-75
2020/12/28 03:43:02;;;;;;;2.78;1.80;;;;;;;15.82;56.01;97674.75;4825979;29;20038;-77
2020/12/28 03:45:27;;;;;;;2.10;1.80;;;;;;;15.83;56.14;97679.84;4833076;29;20516;-75
2020/12/28 03:47:52;;;;;;;2.08;1.70;;;;;;;15.83;56.06;97681.63;4845308;29;20389;-75
2020/12/28 03:50:18;;;;;;;2.00;1.63;;;;;;;15.83;56.02;97679.03;4832824;29;20038;-75
2020/12/28 03:52:43;;;;;;;1.90;1.63;;;;;;;15.82;56.12;97690.28;4826496;29;20136;-75
2020/12/28 03:55:08;;;;;;;2.90;2.05;;;;;;;15.82;56.09;97685.13;4813060;29;20042;-75
2020/12/28 03:57:34;;;;;;;2.33;2.05;;;;;;;15.82;55.91;97688.53;4803934;29;20034;-75
2020/12/28 04:00:00;;;;;;;2.30;1.98;;;;;;;15.81;56.17;97686.88;4823919;29;20042;-75
2020/12/28 04:02:25;;;;;;;2.70;1.90;;;;;;;15.82;55.76;97698.91;4807527;29;20034;-75
2020/12/28 04:04:51;;;;;;;2.28;2.00;;;;;;;15.81;55.82;97702.44;4825425;29;20038;-75
2020/12/28 04:07:16;;;;;;;2.40;1.88;;;;;;;15.81;55.57;97705.03;4799196;29;20113;-76
2020/12/28 04:09:42;;;;;;;2.67;2.10;;;;;;;15.80;55.64;97703.34;4793347;29;20026;-76
2020/12/28 04:12:07;;;;;;;2.30;2.00;;;;;;;15.81;55.91;97701.59;4792015;29;20065;-76
2020/12/28 04:14:33;;;;;;;2.20;1.90;;;;;;;15.81;55.79;97718.00;4806969;29;20478;-76
2020/12/28 04:16:58;;;;;;;2.80;2.17;;;;;;;15.80;55.72;97712.88;4834170;29;20041;-76
2020/12/28 04:19:23;;;;;;;2.20;1.70;;;;;;;15.80;55.86;97702.50;4799756;29;20034;-76
2020/12/28 04:21:49;;;;;;;2.42;2.00;;;;;;;15.79;55.61;97699.06;4825399;29;20032;-76
2020/12/28 04:24:15;;;;;;;2.65;2.17;;;;;;;15.80;55.83;97700.75;4833263;29;20113;-75
2020/12/28 04:26:43;;;;;;;2.42;2.00;;;;;;;15.80;55.70;97703.34;4825923;29;20038;-76
2020/12/28 04:29:13;;;;;;;2.20;1.88;;;;;;;15.79;55.82;97698.25;4809769;29;20490;-76
2020/12/28 04:31:39;;;;;;;2.38;2.13;;;;;;;15.79;55.70;97698.25;4826037;29;20041;-76
2020/12/28 04:34:04;;;;;;;2.38;2.17;;;;;;;15.79;55.65;97700.84;4808197;29;20039;-76
2020/12/28 04:36:30;;;;;;;2.95;2.40;;;;;;;15.79;55.90;97700.84;4830773;29;20083;-76
2020/12/28 04:38:56;;;;;;;3.00;2.40;;;;;;;15.78;56.25;97699.97;4819296;29;20034;-75
2020/12/28 04:41:21;;;;;;;2.40;2.20;;;;;;;15.78;55.58;97702.56;4823466;29;20087;-75
2020/12/28 04:43:46;;;;;;;2.60;2.30;;;;;;;15.78;55.64;97704.34;4821260;29;20037;-75
2020/12/28 04:46:12;;;;;;;2.83;2.25;;;;;;;15.78;55.72;97693.97;4811511;29;20065;-75
2020/12/28 04:48:38;;;;;;;2.25;2.00;;;;;;;15.80;56.14;97697.31;4810424;29;20121;-75
2020/12/28 04:51:04;;;;;;;3.00;2.13;;;;;;;15.81;56.08;97704.19;4835737;29;20132;-75
2020/12/28 04:53:30;;;;;;;2.35;1.98;;;;;;;15.83;56.24;97715.31;4802344;29;20060;-75
2020/12/28 04:55:56;;;;;;;2.60;2.17;;;;;;;15.83;55.91;97708.38;4844038;29;20541;-75
2020/12/28 04:58:22;;;;;;;2.33;2.10;;;;;;;15.85;55.89;97708.28;4824647;29;20038;-75
2020/12/28 05:00:56;;;;;;;2.60;2.20;;;;;;;15.86;56.06;97706.53;4832289;29;20042;-75
2020/12/28 05:03:23;;;;;;;2.47;1.95;;;;;;;15.87;56.14;97703.03;4825953;29;20034;-75
2020/12/28 05:05:49;;;;;;;2.40;2.17;;;;;;;15.89;56.06;97685.63;4842163;29;20025;-76
2020/12/28 05:08:16;;;;;;;2.72;2.17;;;;;;;15.88;55.69;97687.38;4819668;29;20044;-75
2020/12/28 05:10:42;;;;;;;2.17;1.98;;;;;;;15.89;55.89;97699.41;4835620;29;20090;-75
2020/12/28 05:13:09;;;;;;;2.30;2.10;;;;;;;15.89;55.72;97689.06;4824698;29;20034;-75
2020/12/28 05:15:43;;;;;;;3.45;2.47;;;;;;;15.91;55.92;97696.75;4824766;29;20113;-75
2020/12/28 05:18:17;;;;;;;2.65;2.30;;;;;;;15.91;55.82;97696.75;5132659;27;20115;-74
2020/12/28 05:20:47;;;;;;;2.70;2.30;;;;;;;15.92;56.09;97701.88;5125799;28;20467;-74
2020/12/28 05:23:14;;;;;;;2.40;2.13;;;;;;;15.91;56.02;97707.13;5113076;28;20567;-75
2020/12/28 05:25:48;;;;;;;3.00;2.53;;;;;;;15.93;55.74;97694.94;5120652;28;20466;-75
2020/12/28 05:28:19;;;;;;;2.40;2.20;;;;;;;15.93;55.58;97702.69;5109985;28;20024;-76
2020/12/28 05:30:46;;;;;;;2.80;2.40;;;;;;;15.94;55.81;97701.78;5095970;28;20527;-76
2020/12/28 05:33:13;;;;;;;3.00;2.10;;;;;;;15.94;55.43;97700.03;5102487;28;20039;-76
2020/12/28 05:35:39;;;;;;;2.58;2.30;;;;;;;15.94;55.54;97694.84;5072963;28;20150;-76
2020/12/28 05:38:05;;;;;;;3.13;2.30;;;;;;;15.95;55.71;97698.28;5105106;28;20101;-76
2020/12/28 05:40:33;;;;;;;2.72;2.25;;;;;;;15.95;55.35;97701.69;5107816;28;20115;-76
2020/12/28 05:42:59;;;;;;;2.65;2.22;;;;;;;15.97;55.47;97701.63;5104444;28;20478;-76
2020/12/28 05:45:24;;;;;;;2.65;2.33;;;;;;;15.97;55.55;97704.22;5097127;28;20039;-76
2020/12/28 05:47:53;;;;;;;2.70;2.42;;;;;;;15.97;55.66;97693.84;5108027;28;20419;-76
2020/12/28 05:50:23;;;;;;;2.50;2.30;;;;;;;15.96;55.55;97698.22;5107616;28;20034;-76
2020/12/28 05:52:52;;;;;;;3.05;2.60;;;;;;;15.95;55.51;97695.69;5110906;28;20019;-75
2020/12/28 05:55:21;;;;;;;2.63;2.30;;;;;;;15.95;55.32;97704.28;5107673;28;20048;-76
2020/12/28 05:57:46;;;;;;;2.90;2.28;;;;;;;15.94;55.60;97696.59;5108239;28;20081;-76
2020/12/28 06:00:12;;;;;;;2.65;2.45;;;;;;;15.93;55.43;97700.94;5101276;28;20072;-76
2020/12/28 06:02:39;;;;;;;3.20;2.70;;;;;;;15.93;55.61;97700.09;5108566;28;20374;-76
2020/12/28 06:05:07;;;;;;;2.72;2.45;;;;;;;15.91;55.46;97689.81;5108593;28;20105;-76
2020/12/28 06:07:33;;;;;;;2.70;2.40;;;;;;;15.90;55.60;97700.28;5109692;28;20032;-76
2020/12/28 06:09:58;;;;;;;2.85;2.55;;;;;;;15.90;54.99;97695.09;5081565;28;20583;-76
2020/12/28 06:12:24;;;;;;;2.85;2.40;;;;;;;15.89;55.39;97689.06;5103913;28;20028;-76
2020/12/28 06:14:50;;;;;;;2.83;2.50;;;;;;;15.87;55.64;97693.47;5105240;28;20028;-76
2020/12/28 06:17:16;;;;;;;3.28;2.70;;;;;;;15.88;55.39;97702.13;5108699;28;20051;-76
2020/12/28 06:19:41;;;;;;;3.60;2.50;;;;;;;15.88;55.39;97689.16;5107842;28;20355;-76
2020/12/28 06:22:23;;;;;;;3.17;2.75;;;;;;;15.87;55.32;97695.25;5109597;28;20024;-76
2020/12/28 06:25:04;;;;;;;3.40;3.00;;;;;;;15.88;55.36;97704.72;5105404;28;20395;-76
2020/12/28 06:27:32;;;;;;;3.17;2.80;;;;;;;15.87;55.40;97695.25;5101524;28;20097;-76
2020/12/28 06:30:15;;;;;;;3.20;2.90;;;;;;;15.86;55.40;97698.78;5085466;28;20475;-76
2020/12/28 06:32:41;;;;;;;3.08;2.78;;;;;;;15.85;55.46;97697.91;5076166;28;20024;-76
2020/12/28 06:35:09;;;;;;;3.33;3.03;;;;;;;15.85;55.54;97700.50;5060669;28;20028;-76
2020/12/28 06:37:39;;;;;;;3.00;2.70;;;;;;;15.84;55.55;97702.25;5095999;28;20028;-76
2020/12/28 06:40:05;;;;;;;3.03;2.50;;;;;;;15.84;55.35;97697.06;5090968;28;20114;-76
2020/12/28 06:42:31;;;;;;;3.13;2.75;;;;;;;15.83;55.53;97698.00;5078519;28;20043;-76
2020/12/28 06:44:56;;;;;;;3.10;2.80;;;;;;;15.85;55.39;97703.09;5087998;28;20474;-76
2020/12/28 06:47:24;;;;;;;3.70;2.72;;;;;;;15.82;55.37;97704.09;5081327;28;20130;-76
2020/12/28 06:49:51;;;;;;;3.05;2.70;;;;;;;15.83;55.28;97704.97;5091489;28;20043;-76
2020/12/28 06:52:17;;;;;;;3.40;3.08;;;;;;;15.83;55.16;97710.97;5093421;28;20020;-76
2020/12/28 06:54:43;;;;;;;3.17;2.88;;;;;;;15.83;55.27;97716.16;5090456;28;20093;-76
2020/12/28 06:57:10;;;;;;;3.08;2.78;;;;;;;15.82;55.38;97724.00;5095040;28;20032;-76
2020/12/28 06:59:38;;;;;;;3.42;2.90;;;;;;;15.81;55.31;97720.59;5093547;28;20065;-75
2020/12/28 07:02:04;;;;;;;3.05;2.70;;;;;;;15.81;55.38;97722.34;5093403;28;20178;-75
2020/12/28 07:04:35;;;;;;;3.40;3.10;;;;;;;15.81;55.28;97735.31;5056727;28;20085;-75
2020/12/28 07:07:04;;;;;;;2.95;2.67;;;;;;;15.81;55.03;97735.31;5093308;28;20020;-76
2020/12/28 07:09:29;;;;;;;3.75;3.10;;;;;;;15.80;55.30;97728.44;5084215;28;20028;-76
2020/12/28 07:11:55;;;;;;;3.38;3.08;;;;;;;15.79;55.76;97730.19;5074935;28;20542;-76
2020/12/28 07:14:21;;;;;;;4.78;3.20;;;;;;;15.79;55.28;97732.78;5094109;28;20028;-76
2020/12/28 07:16:55;;;;;;;3.28;2.97;;;;;;;15.79;55.31;97731.97;5092367;28;20729;-75
2020/12/28 07:19:22;;;;;;;3.33;3.03;;;;;;;15.79;55.50;97735.38;5094946;28;20026;-77
2020/12/28 07:21:47;;;;;;;3.15;2.80;;;;;;;15.78;55.47;97738.03;5089038;28;20452;-77
2020/12/28 07:24:13;;;;;;;3.17;2.88;;;;;;;15.78;55.55;97738.03;5093369;28;20070;-76
2020/12/28 07:26:41;;;;;;;5.28;3.55;;;;;;;15.78;55.32;97745.81;5092324;28;20129;-76
2020/12/28 07:29:14;;;;;;;3.33;3.03;;;;;;;15.78;55.53;97751.00;5088235;28;20042;-76
2020/12/28 07:31:40;;;;;;;3.55;3.03;;;;;;;15.79;55.35;97761.31;5094472;28;20036;-77
2020/12/28 07:34:05;;;;;;;3.30;3.00;;;;;;;15.78;55.07;97754.44;5093518;28;20107;-77
2020/12/28 07:36:33;;;;;;;3.20;2.90;;;;;;;15.77;55.19;97765.72;5076383;28;20550;-77
2020/12/28 07:39:00;;;;;;;3.50;3.10;;;;;;;15.79;55.27;97761.31;5094001;28;20031;-77
2020/12/28 07:41:25;;;;;;;3.90;3.15;;;;;;;15.77;55.19;97770.09;5088130;28;20546;-77
2020/12/28 07:43:56;;;;;;;3.83;3.38;;;;;;;15.77;55.13;97770.91;5086845;28;20112;-76
2020/12/28 07:46:29;;;;;;;3.50;3.20;;;;;;;15.77;55.06;97773.50;5077860;28;20073;-77
2020/12/28 07:48:56;;;;;;;3.60;3.30;;;;;;;15.77;55.21;97776.09;5075245;28;20479;-77
2020/12/28 07:51:24;;;;;;;3.17;2.67;;;;;;;15.77;54.96;97781.28;5086818;28;20319;-77
2020/12/28 07:53:56;;;;;;;3.35;3.05;;;;;;;15.76;55.21;97773.56;5075388;28;20028;-76
2020/12/28 07:56:44;;;;;;;3.30;3.00;;;;;;;15.75;54.85;97777.94;5094022;28;20034;-77
2020/12/28 07:59:44;;;;;;;3.30;3.00;;;;;;;15.75;55.49;97772.75;5086011;28;20028;-76
2020/12/28 08:02:46;;;;;;;4.72;3.08;;;;;;;15.74;55.08;97773.69;5088858;28;20466;-76
2020/12/28 08:05:12;;;;;;;3.28;2.97;;;;;;;15.75;55.17;97774.50;5090420;28;20028;-76
2020/12/28 08:07:38;;;;;;;3.40;3.03;;;;;;;15.75;55.18;97767.56;5087715;28;20024;-76
2020/12/28 08:10:08;;;;;;;3.33;3.03;;;;;;;15.74;55.03;97768.50;5086069;28;20119;-76
2020/12/28 08:12:36;;;;;;;3.22;2.80;;;;;;;15.74;55.23;97771.09;5089592;28;20038;-76
2020/12/28 08:15:02;;;;;;;3.20;2.92;;;;;;;15.74;55.27;97765.91;5078925;28;20062;-76
2020/12/28 08:17:28;;;;;;;2.83;2.63;;;;;;;15.74;55.13;97770.22;5093606;28;20222;-75
2020/12/28 08:20:11;;;;;;;3.10;2.50;;;;;;;15.74;55.03;97770.22;5093023;28;20118;-75
2020/12/28 08:22:38;;;;;;;3.30;3.00;;;;;;;15.74;55.06;97775.41;5093364;28;20023;-75
2020/12/28 08:25:09;;;;;;;3.40;2.90;;;;;;;15.76;54.93;97776.16;5074303;28;20076;-75
2020/12/28 08:27:36;;;;;;;3.13;2.83;;;;;;;15.77;55.38;97770.09;5086336;28;20019;-75
2020/12/28 08:30:07;;;;;;;3.20;2.80;;;;;;;15.79;55.11;97776.03;5079989;28;20062;-75
2020/12/28 08:32:34;;;;;;;3.28;2.92;;;;;;;15.79;55.12;97773.44;5093928;28;20035;-75
2020/12/28 08:35:00;;;;;;;3.15;2.85;;;;;;;15.79;54.84;97779.47;5092394;28;20043;-75
2020/12/28 08:37:27;;;;;;;3.72;2.95;;;;;;;15.81;55.36;97776.78;5090066;28;20374;-75
2020/12/28 08:39:53;;;;;;;3.42;2.78;;;;;;;15.81;54.81;97780.22;5091436;28;20512;-75
2020/12/28 08:42:32;;;;;;;2.90;2.60;;;;;;;15.82;54.94;97781.06;5090517;28;20063;-75
2020/12/28 08:44:57;;;;;;;2.70;2.50;;;;;;;15.83;54.78;97782.75;5093230;28;20027;-75
2020/12/28 08:47:25;;;;;;;3.42;2.50;;;;;;;15.84;54.88;97787.81;5087521;28;20188;-75
2020/12/28 08:49:51;;;;;;;3.03;2.70;;;;;;;15.86;54.86;97786.94;5091885;28;20024;-75
2020/12/28 08:52:19;;;;;;;2.75;2.55;;;;;;;15.86;55.16;97786.94;5106379;28;20032;-76
2020/12/28 08:54:59;;;;;;;2.60;2.40;;;;;;;15.86;55.07;97776.56;5092128;28;20064;-76
2020/12/28 08:57:29;;;;;;;2.72;2.53;;;;;;;15.89;54.94;97778.97;5074913;28;20496;-75
2020/12/28 08:59:56;;;;;;;2.83;2.42;;;;;;;15.91;54.68;97777.97;5084130;28;20025;-75
2020/12/28 09:02:23;;;;;;;3.20;2.70;;;;;;;15.93;54.60;97783.94;5089547;28;20070;-75
2020/12/28 09:04:49;;;;;;;2.92;2.50;;;;;;;15.95;54.82;97778.66;5090842;28;20036;-75
2020/12/28 09:07:15;;;;;;;2.35;2.15;;;;;;;15.97;54.63;97779.44;5088477;28;20028;-75
2020/12/28 09:09:42;;;;;;;2.42;2.20;;;;;;;15.98;54.69;97781.97;5092164;28;20508;-76
2020/12/28 09:12:10;;;;;;;3.65;2.20;;;;;;;15.99;54.57;97782.78;5092600;28;20075;-76
2020/12/28 09:14:35;;;;;;;2.40;2.20;;;;;;;16.01;54.61;97789.56;5089143;28;20020;-76
2020/12/28 09:17:01;;;;;;;2.67;2.20;;;;;;;16.03;54.61;97784.31;5091643;28;20043;-75
2020/12/28 09:19:26;;;;;;;2.67;2.33;;;;;;;16.03;54.49;97777.34;5086604;28;20028;-75
2020/12/28 09:21:52;;;;;;;2.42;2.20;;;;;;;16.04;54.44;97789.41;5093768;28;20036;-75
2020/12/28 09:24:17;;;;;;;2.58;2.38;;;;;;;16.06;54.41;97791.09;5091065;28;20103;-76
2020/12/28 09:26:43;;;;;;;2.40;2.20;;;;;;;16.07;54.24;97788.44;5090465;28;20039;-75
2020/12/28 09:29:08;;;;;;;2.25;2.05;;;;;;;16.07;54.48;97791.03;5091892;28;20397;-75
2020/12/28 09:31:33;;;;;;;2.58;2.38;;;;;;;16.07;54.39;97798.81;5056134;28;20052;-75
2020/12/28 09:33:59;;;;;;;2.58;2.05;;;;;;;16.08;54.07;97794.44;5086403;28;20028;-75
2020/12/28 09:36:24;;;;;;;2.30;2.10;;;;;;;16.06;54.47;97796.28;5079963;28;20039;-75
2020/12/28 09:38:49;;;;;;;2.00;1.80;;;;;;;16.05;54.31;97792.84;5084979;28;20038;-75
2020/12/28 09:41:15;;;;;;;3.00;2.00;;;;;;;16.03;54.28;97795.50;5089353;28;20032;-75
2020/12/28 09:43:41;;;;;;;2.58;2.20;;;;;;;16.03;54.57;97797.28;5092636;28;20486;-75
2020/12/28 09:46:08;;;;;;;2.72;2.17;;;;;;;16.04;54.29;97799.78;5092903;28;20471;-75
2020/12/28 09:48:33;;;;;;;2.03;1.83;;;;;;;16.01;54.42;97797.34;5092510;28;20043;-75
2020/12/28 09:50:58;;;;;;;2.63;2.20;;;;;;;16.02;54.41;97803.38;5089878;28;20032;-75
2020/12/28 09:53:24;;;;;;;2.90;2.38;;;;;;;16.03;54.37;97799.88;5083149;28;20024;-75
2020/12/28 09:55:49;;;;;;;2.20;2.00;;;;;;;16.03;54.28;97799.88;5091804;28;20059;-75
2020/12/28 09:58:14;;;;;;;2.50;2.20;;;;;;;16.04;53.57;97801.53;5075071;28;20036;-75
2020/12/28 10:00:40;;;;;;;2.13;1.88;;;;;;;16.03;54.10;97807.66;5073027;28;20052;-75
2020/12/28 10:03:05;;;;;;;2.35;2.10;;;;;;;16.03;54.12;97797.28;5092968;28;20031;-75
2020/12/28 10:05:30;;;;;;;2.88;1.83;;;;;;;16.04;54.09;97798.94;5080229;28;20115;-75
2020/12/28 10:07:56;;;;;;;2.35;1.90;;;;;;;16.02;54.22;97803.38;5073079;28;20430;-77
2020/12/28 10:10:21;;;;;;;2.38;1.90;;;;;;;16.02;54.18;97799.00;5096207;28;20102;-76
2020/12/28 10:12:47;;;;;;;2.65;2.22;;;;;;;16.02;54.30;97806.78;5088081;28;20043;-76
2020/12/28 10:15:12;;;;;;;2.50;2.10;;;;;;;16.01;54.08;97804.28;5084143;28;20394;-76
2020/12/28 10:17:37;;;;;;;2.30;2.00;;;;;;;16.00;54.40;97802.59;5077740;28;20409;-76
2020/12/28 10:20:04;;;;;;;2.20;2.00;;;;;;;15.99;54.22;97801.78;5093400;28;20044;-76
2020/12/28 10:22:29;;;;;;;2.15;1.95;;;;;;;15.98;54.33;97805.31;5085434;28;20034;-76
2020/12/28 10:24:55;;;;;;;2.05;1.63;;;;;;;15.97;54.40;97811.38;5084748;28;20486;-76
2020/12/28 10:27:21;;;;;;;2.25;1.83;;;;;;;15.97;54.40;97813.16;5096207;28;20024;-77
2020/12/28 10:29:46;;;;;;;2.53;2.10;;;;;;;15.96;54.47;97814.91;5092910;28;20032;-76
2020/12/28 10:32:11;;;;;;;2.20;2.00;;;;;;;15.95;54.36;97814.97;5091937;28;20043;-76
2020/12/28 10:34:37;;;;;;;2.45;1.90;;;;;;;15.95;54.27;97817.56;5085324;28;20024;-76
2020/12/28 10:37:02;;;;;;;2.45;1.80;;;;;;;15.94;54.35;97810.69;5094281;28;20024;-76
2020/12/28 10:39:27;;;;;;;2.10;1.90;;;;;;;15.94;54.17;97811.56;5096372;28;20032;-76
2020/12/28 10:41:53;;;;;;;2.33;1.90;;;;;;;15.96;54.20;97814.03;5095432;28;20032;-76
2020/12/28 10:44:19;;;;;;;2.20;1.92;;;;;;;15.97;54.32;97820.94;5074358;28;20063;-76
2020/12/28 10:46:47;;;;;;;2.78;2.08;;;;;;;15.96;54.39;97821.81;5093467;28;20035;-76
2020/12/28 10:49:12;;;;;;;2.00;1.80;;;;;;;15.95;54.24;97825.34;5090023;28;20494;-76
2020/12/28 10:51:38;;;;;;;2.67;2.10;;;;;;;15.95;54.14;97827.94;5060577;28;20043;-76
2020/12/28 10:54:03;;;;;;;2.38;1.90;;;;;;;15.94;54.42;97829.72;5093887;28;20377;-76
2020/12/28 10:56:30;;;;;;;2.17;1.70;;;;;;;15.95;54.12;97825.34;5094703;28;20037;-75
2020/12/28 10:58:57;;;;;;;2.00;1.77;;;;;;;15.95;54.16;97817.56;5094839;28;20031;-75
2020/12/28 11:01:26;;;;;;;2.22;1.85;;;;;;;15.94;54.24;97821.94;5090622;28;20498;-75
2020/12/28 11:03:52;;;;;;;2.38;1.77;;;;;;;15.93;54.37;97825.41;5095088;28;20117;-76
2020/12/28 11:06:18;;;;;;;2.63;1.85;;;;;;;15.92;54.51;97826.34;5088335;28;20060;-76
2020/12/28 11:08:44;;;;;;;1.98;1.55;;;;;;;15.91;54.22;97822.06;5094665;28;20039;-76
2020/12/28 11:11:09;;;;;;;2.53;1.88;;;;;;;15.93;54.27;97817.63;5086596;28;20401;-76
2020/12/28 11:13:35;;;;;;;1.92;1.30;;;;;;;15.94;54.33;97815.88;5092435;28;20077;-76
2020/12/28 11:16:00;;;;;;;1.85;1.65;;;;;;;15.96;53.95;97811.44;5094442;28;20027;-76
2020/12/28 11:18:26;;;;;;;1.92;1.70;;;;;;;15.97;54.16;97808.78;5085962;28;20139;-75
2020/12/28 11:20:51;;;;;;;1.95;1.70;;;;;;;15.96;53.91;97799.34;5076016;28;20449;-76
2020/12/28 11:23:16;;;;;;;2.30;1.75;;;;;;;15.99;53.80;97798.34;5077034;28;20028;-76
2020/12/28 11:25:42;;;;;;;2.08;1.70;;;;;;;15.98;53.98;97800.09;5092822;28;20387;-76
2020/12/28 11:28:07;;;;;;;2.15;1.55;;;;;;;15.99;53.89;97803.53;5094681;28;20055;-76
2020/12/28 11:30:32;;;;;;;1.98;1.60;;;;;;;15.99;53.95;97803.53;5073154;28;20099;-76
2020/12/28 11:32:57;;;;;;;1.75;1.58;;;;;;;16.01;53.93;97807.72;5084349;28;20036;-76